createdAt,value
2022-10-19T00:00:52.084Z,63.35
2022-10-19T00:04:52.084Z,63.32
2022-10-19T00:06:52.103Z,63.31
2022-10-19T00:07:52.135Z,63.34
2022-10-19T00:08:52.084Z,63.44
2022-10-19T00:09:52.099Z,63.43
2022-10-19T00:10:55.752Z,63.41
2022-10-19T00:11:52.115Z,63.41
2022-10-19T00:12:52.117Z,63.50
2022-10-19T00:13:52.081Z,63.53
2022-10-19T00:14:52.079Z,63.65
2022-10-19T00:15:52.084Z,63.68
2022-10-19T00:16:52.088Z,63.78
2022-10-19T00:18:52.150Z,63.69
2022-10-19T00:21:52.140Z,63.57
2022-10-19T00:22:52.136Z,63.57
2022-10-19T00:23:52.151Z,63.43
2022-10-19T00:24:52.166Z,63.48
2022-10-19T00:26:52.147Z,63.43
2022-10-19T00:28:52.193Z,63.46
2022-10-19T00:29:52.125Z,63.64
2022-10-19T00:30:52.159Z,63.55
2022-10-19T00:31:52.137Z,63.49
2022-10-19T00:32:52.134Z,63.49
2022-10-19T00:33:52.135Z,63.61
2022-10-19T00:34:52.160Z,63.57
2022-10-19T00:35:52.145Z,63.91
2022-10-19T00:37:52.178Z,63.74
2022-10-19T00:38:52.162Z,63.84
2022-10-19T00:39:52.208Z,63.59
2022-10-19T00:40:52.157Z,63.59
2022-10-19T00:43:52.202Z,63.67
2022-10-19T00:44:52.184Z,63.73
2022-10-19T00:45:52.174Z,63.73
2022-10-19T00:46:52.175Z,63.83
2022-10-19T00:47:55.980Z,63.87
2022-10-19T00:49:52.210Z,63.87
2022-10-19T00:51:52.196Z,63.87
2022-10-19T00:52:52.214Z,63.91
2022-10-19T00:54:52.189Z,63.93
2022-10-19T00:57:52.271Z,63.88
2022-10-19T00:58:52.222Z,63.92
2022-10-19T00:59:52.204Z,63.98
2022-10-19T01:00:52.286Z,64.08
2022-10-19T01:01:52.224Z,64.16
2022-10-19T01:02:52.221Z,64.01
2022-10-19T01:03:52.233Z,64.16
2022-10-19T01:05:52.229Z,64.18
2022-10-19T01:06:52.220Z,64.27
2022-10-19T01:07:52.238Z,64.24
2022-10-19T01:08:52.283Z,64.23
2022-10-19T01:09:52.259Z,64.32
2022-10-19T01:10:52.255Z,64.31
2022-10-19T01:11:52.241Z,64.25
2022-10-19T01:13:52.244Z,64.15
2022-10-19T01:14:52.270Z,64.10
2022-10-19T01:16:52.262Z,63.99
2022-10-19T01:17:52.301Z,63.98
2022-10-19T01:18:52.279Z,64.01
2022-10-19T01:19:52.265Z,64.17
2022-10-19T01:20:52.271Z,64.12
2022-10-19T01:21:52.247Z,64.09
2022-10-19T01:22:52.254Z,64.12
2022-10-19T01:23:52.251Z,64.15
2022-10-19T01:24:56.194Z,64.19
2022-10-19T01:25:52.313Z,64.24
2022-10-19T01:27:52.280Z,64.27
2022-10-19T01:28:52.323Z,64.27
2022-10-19T01:29:52.296Z,64.31
2022-10-19T01:30:52.370Z,64.37
2022-10-19T01:31:52.301Z,64.57
2022-10-19T01:34:52.302Z,64.45
2022-10-19T01:35:52.304Z,64.42
2022-10-19T01:36:52.326Z,64.44
2022-10-19T01:37:52.334Z,64.41
2022-10-19T01:39:52.328Z,64.20
2022-10-19T01:40:52.327Z,64.10
2022-10-19T01:41:52.332Z,64.13
2022-10-19T01:44:52.347Z,64.01
2022-10-19T01:45:52.324Z,63.97
2022-10-19T01:46:52.326Z,63.96
2022-10-19T01:47:52.343Z,63.94
2022-10-19T01:51:52.408Z,64.04
2022-10-19T01:52:52.346Z,64.02
2022-10-19T01:53:52.367Z,64.00
2022-10-19T01:54:52.336Z,64.01
2022-10-19T01:55:52.335Z,64.09
2022-10-19T01:59:52.370Z,63.94
2022-10-19T02:00:52.502Z,63.99
2022-10-19T02:01:56.404Z,64.08
2022-10-19T02:06:52.421Z,64.15
2022-10-19T02:08:52.381Z,64.07
2022-10-19T02:09:52.373Z,64.08
2022-10-19T02:13:52.483Z,64.17
2022-10-19T02:14:52.402Z,64.17
2022-10-19T02:15:52.418Z,64.58
2022-10-19T02:16:52.417Z,65.02
2022-10-19T02:17:52.409Z,65.60
2022-10-19T02:18:52.426Z,65.84
2022-10-19T02:19:52.461Z,65.87
2022-10-19T02:20:52.440Z,66.62
2022-10-19T02:21:52.439Z,66.49
2022-10-19T02:22:52.427Z,66.22
2022-10-19T02:23:54.190Z,65.98
2022-10-19T02:24:52.414Z,65.80
2022-10-19T02:25:52.459Z,65.59
2022-10-19T02:26:52.448Z,65.46
2022-10-19T02:27:52.426Z,65.37
2022-10-19T02:28:52.454Z,65.54
2022-10-19T02:29:52.442Z,65.54
2022-10-19T02:30:52.436Z,65.84
2022-10-19T02:31:52.473Z,66.17
2022-10-19T02:32:52.442Z,66.37
2022-10-19T02:33:52.458Z,66.32
2022-10-19T02:34:52.455Z,66.75
2022-10-19T02:35:52.435Z,66.91
2022-10-19T02:36:52.470Z,67.09
2022-10-19T02:37:52.478Z,67.19
2022-10-19T02:38:56.616Z,66.98
2022-10-19T02:39:52.457Z,66.98
2022-10-19T02:40:52.484Z,67.09
2022-10-19T02:41:52.480Z,67.25
2022-10-19T02:42:52.491Z,67.25
2022-10-19T02:43:52.508Z,67.71
2022-10-19T02:44:52.497Z,67.74
2022-10-19T02:45:52.476Z,67.59
2022-10-19T02:46:52.473Z,67.45
2022-10-19T02:47:52.481Z,67.20
2022-10-19T02:48:52.525Z,67.58
2022-10-19T02:49:52.528Z,67.44
2022-10-19T02:50:52.500Z,67.08
2022-10-19T02:51:52.484Z,66.69
2022-10-19T02:52:52.514Z,66.46
2022-10-19T02:53:52.513Z,66.17
2022-10-19T02:54:52.513Z,66.17
2022-10-19T02:55:52.485Z,65.97
2022-10-19T02:56:52.502Z,65.94
2022-10-19T02:57:52.524Z,65.71
2022-10-19T02:58:52.496Z,65.76
2022-10-19T02:59:52.531Z,65.62
2022-10-19T03:01:52.580Z,65.89
2022-10-19T03:02:52.507Z,65.89
2022-10-19T03:04:52.517Z,65.72
2022-10-19T03:05:52.537Z,65.71
2022-10-19T03:08:52.564Z,65.54
2022-10-19T03:09:52.535Z,65.52
2022-10-19T03:11:52.539Z,65.54
2022-10-19T03:12:52.571Z,65.53
2022-10-19T03:14:52.557Z,65.56
2022-10-19T03:15:56.818Z,65.67
2022-10-19T03:16:52.574Z,65.67
2022-10-19T03:21:52.586Z,65.79
2022-10-19T03:23:52.571Z,65.86
2022-10-19T03:24:52.572Z,65.85
2022-10-19T03:25:52.577Z,65.88
2022-10-19T03:29:52.614Z,65.82
2022-10-19T03:31:52.581Z,65.82
2022-10-19T03:32:52.602Z,65.84
2022-10-19T03:33:52.610Z,65.80
2022-10-19T03:34:52.596Z,65.80
2022-10-19T03:35:52.638Z,65.84
2022-10-19T03:36:52.611Z,65.98
2022-10-19T03:37:52.614Z,66.02
2022-10-19T03:38:52.604Z,66.04
2022-10-19T03:42:52.639Z,65.81
2022-10-19T03:43:52.738Z,65.79
2022-10-19T03:44:52.651Z,65.85
2022-10-19T03:47:52.718Z,65.75
2022-10-19T03:48:52.620Z,65.75
2022-10-19T03:49:52.635Z,65.63
2022-10-19T03:52:57.098Z,65.45
2022-10-19T03:53:52.657Z,65.45
2022-10-19T03:55:52.653Z,65.16
2022-10-19T03:56:52.649Z,65.12
2022-10-19T03:57:52.652Z,65.11
2022-10-19T03:58:52.708Z,65.05
2022-10-19T04:00:52.763Z,64.97
2022-10-19T04:01:52.661Z,64.95
2022-10-19T04:02:52.658Z,64.80
2022-10-19T04:03:52.656Z,64.66
2022-10-19T04:04:52.708Z,64.43
2022-10-19T04:05:52.692Z,64.36
2022-10-19T04:06:52.679Z,64.37
2022-10-19T04:07:52.697Z,64.41
2022-10-19T04:08:52.684Z,64.38
2022-10-19T04:09:52.688Z,64.34
2022-10-19T04:10:52.711Z,64.28
2022-10-19T04:11:52.708Z,64.32
2022-10-19T04:12:53.872Z,64.35
2022-10-19T04:13:52.691Z,64.31
2022-10-19T04:14:57.284Z,64.33
2022-10-19T04:15:52.737Z,64.33
2022-10-19T04:16:52.710Z,64.34
2022-10-19T04:17:52.708Z,64.27
2022-10-19T04:18:52.713Z,64.31
2022-10-19T04:19:52.734Z,64.28
2022-10-19T04:20:52.726Z,64.27
2022-10-19T04:21:52.743Z,64.31
2022-10-19T04:22:52.755Z,64.28
2022-10-19T04:23:52.739Z,64.28
2022-10-19T04:24:52.745Z,64.33
2022-10-19T04:25:52.741Z,64.37
2022-10-19T04:26:52.742Z,64.36
2022-10-19T04:29:57.274Z,64.34
2022-10-19T04:34:52.758Z,64.23
2022-10-19T04:35:52.798Z,64.18
2022-10-19T04:39:52.768Z,64.40
2022-10-19T04:40:52.840Z,64.33
2022-10-19T04:41:52.774Z,64.32
2022-10-19T04:42:52.770Z,64.25
2022-10-19T04:43:52.779Z,64.24
2022-10-19T04:45:52.801Z,64.22
2022-10-19T04:46:52.819Z,64.22
2022-10-19T04:47:52.803Z,64.20
2022-10-19T04:49:52.783Z,64.04
2022-10-19T04:52:52.829Z,64.01
2022-10-19T04:53:54.488Z,64.05
2022-10-19T04:54:52.799Z,64.28
2022-10-19T04:55:52.833Z,64.43
2022-10-19T04:57:52.802Z,64.58
2022-10-19T04:58:52.883Z,64.81
2022-10-19T04:59:52.825Z,65.26
2022-10-19T05:00:53.015Z,65.86
2022-10-19T05:01:52.803Z,67.21
2022-10-19T05:02:52.819Z,67.43
2022-10-19T05:04:52.850Z,68.09
2022-10-19T05:05:52.830Z,68.13
2022-10-19T05:06:57.460Z,68.75
2022-10-19T05:07:52.845Z,68.75
2022-10-19T05:09:52.849Z,68.76
2022-10-19T05:10:52.880Z,68.71
2022-10-19T05:11:52.887Z,68.32
2022-10-19T05:12:52.860Z,68.32
2022-10-19T05:13:52.869Z,68.38
2022-10-19T05:14:52.873Z,68.69
2022-10-19T05:15:52.883Z,68.79
2022-10-19T05:16:52.882Z,68.97
2022-10-19T05:17:52.866Z,69.43
2022-10-19T05:18:52.864Z,69.75
2022-10-19T05:19:52.904Z,69.69
2022-10-19T05:20:52.883Z,69.68
2022-10-19T05:21:52.867Z,69.68
2022-10-19T05:22:52.914Z,69.28
2022-10-19T05:23:52.865Z,69.07
2022-10-19T05:24:55.865Z,68.83
2022-10-19T05:25:52.915Z,68.83
2022-10-19T05:27:52.894Z,68.95
2022-10-19T05:28:52.960Z,69.00
2022-10-19T05:29:52.899Z,68.74
2022-10-19T05:30:52.918Z,68.74
2022-10-19T05:31:52.909Z,68.56
2022-10-19T05:32:52.894Z,68.33
2022-10-19T05:33:52.995Z,68.12
2022-10-19T05:34:52.927Z,68.12
2022-10-19T05:36:52.918Z,68.21
2022-10-19T05:38:52.918Z,68.16
2022-10-19T05:40:53.756Z,68.10
2022-10-19T05:42:52.926Z,68.07
2022-10-19T05:43:57.706Z,68.12
2022-10-19T05:45:52.949Z,68.19
2022-10-19T05:46:52.971Z,68.20
2022-10-19T05:47:52.947Z,68.21
2022-10-19T05:48:52.971Z,68.12
2022-10-19T05:49:52.944Z,68.08
2022-10-19T05:50:52.949Z,68.15
2022-10-19T05:51:52.942Z,68.07
2022-10-19T05:52:52.995Z,68.08
2022-10-19T05:53:52.945Z,68.11
2022-10-19T05:55:52.968Z,68.13
2022-10-19T05:56:52.973Z,68.04
2022-10-19T05:57:52.986Z,67.99
2022-10-19T05:58:53.019Z,67.96
2022-10-19T05:59:53.004Z,67.98
2022-10-19T06:00:53.014Z,67.83
2022-10-19T06:01:53.025Z,67.83
2022-10-19T06:02:58.288Z,67.67
2022-10-19T06:03:53.008Z,67.71
2022-10-19T06:04:53.092Z,67.81
2022-10-19T06:05:52.995Z,67.81
2022-10-19T06:06:52.998Z,67.86
2022-10-19T06:07:53.011Z,67.85
2022-10-19T06:08:53.026Z,67.85
2022-10-19T06:09:53.008Z,67.78
2022-10-19T06:10:53.020Z,67.92
2022-10-19T06:11:52.995Z,67.78
2022-10-19T06:13:52.996Z,67.88
2022-10-19T06:14:53.001Z,67.86
2022-10-19T06:15:53.070Z,67.98
2022-10-19T06:16:53.005Z,67.98
2022-10-19T06:17:53.041Z,68.13
2022-10-19T06:18:53.017Z,68.27
2022-10-19T06:19:53.031Z,68.20
2022-10-19T06:20:57.926Z,68.12
2022-10-19T06:21:53.012Z,68.12
2022-10-19T06:22:53.031Z,68.12
2022-10-19T06:23:53.019Z,68.07
2022-10-19T06:24:53.027Z,67.98
2022-10-19T06:25:53.053Z,67.97
2022-10-19T06:26:53.054Z,68.22
2022-10-19T06:27:53.093Z,68.44
2022-10-19T06:28:53.074Z,68.57
2022-10-19T06:29:53.064Z,68.49
2022-10-19T06:30:53.104Z,68.41
2022-10-19T06:32:53.189Z,68.40
2022-10-19T06:33:53.750Z,68.21
2022-10-19T06:34:56.420Z,68.58
2022-10-19T06:35:53.050Z,68.81
2022-10-19T06:36:53.074Z,68.95
2022-10-19T06:37:53.079Z,68.95
2022-10-19T06:38:53.116Z,68.91
2022-10-19T06:39:53.135Z,68.76
2022-10-19T06:40:53.077Z,68.82
2022-10-19T06:41:53.077Z,68.85
2022-10-19T06:42:53.088Z,69.10
2022-10-19T06:43:53.078Z,69.34
2022-10-19T06:44:53.128Z,69.76
2022-10-19T06:45:53.104Z,70.00
2022-10-19T06:46:53.081Z,69.82
2022-10-19T06:47:53.103Z,69.56
2022-10-19T06:48:53.096Z,69.30
2022-10-19T06:49:53.103Z,69.05
2022-10-19T06:50:53.122Z,69.28
2022-10-19T06:52:53.120Z,69.50
2022-10-19T06:53:56.582Z,69.50
2022-10-19T06:54:53.124Z,69.52
2022-10-19T06:55:53.126Z,69.50
2022-10-19T06:56:53.176Z,69.48
2022-10-19T06:57:58.097Z,69.36
2022-10-19T06:58:53.148Z,69.36
2022-10-19T06:59:53.795Z,69.19
2022-10-19T07:00:53.190Z,69.08
2022-10-19T07:01:53.135Z,69.15
2022-10-19T07:02:53.120Z,69.29
2022-10-19T07:03:53.149Z,69.34
2022-10-19T07:04:53.138Z,69.06
2022-10-19T07:05:53.150Z,68.82
2022-10-19T07:06:53.140Z,68.82
2022-10-19T07:07:53.377Z,68.72
2022-10-19T07:08:53.129Z,68.49
2022-10-19T07:09:53.145Z,68.54
2022-10-19T07:10:53.152Z,68.54
2022-10-19T07:11:53.165Z,68.27
2022-10-19T07:12:53.240Z,68.38
2022-10-19T07:13:53.177Z,68.42
2022-10-19T07:14:53.160Z,68.34
2022-10-19T07:15:53.178Z,68.01
2022-10-19T07:16:53.182Z,68.01
2022-10-19T07:17:53.187Z,67.68
2022-10-19T07:18:53.157Z,68.02
2022-10-19T07:19:53.181Z,67.89
2022-10-19T07:20:53.189Z,67.80
2022-10-19T07:21:53.211Z,67.81
2022-10-19T07:22:53.207Z,67.85
2022-10-19T07:23:53.192Z,67.85
2022-10-19T07:24:53.201Z,67.79
2022-10-19T07:25:53.188Z,67.76
2022-10-19T07:26:53.220Z,67.58
2022-10-19T07:27:53.202Z,67.62
2022-10-19T07:28:53.206Z,67.61
2022-10-19T07:29:53.208Z,67.53
2022-10-19T07:30:53.230Z,67.37
2022-10-19T07:31:53.319Z,67.24
2022-10-19T07:32:53.207Z,67.24
2022-10-19T07:33:53.216Z,67.23
2022-10-19T07:34:58.251Z,67.02
2022-10-19T07:35:53.220Z,67.05
2022-10-19T07:36:53.213Z,66.97
2022-10-19T07:37:53.218Z,66.73
2022-10-19T07:38:53.218Z,66.89
2022-10-19T07:39:53.225Z,67.39
2022-10-19T07:40:53.229Z,67.56
2022-10-19T07:41:53.244Z,67.41
2022-10-19T07:42:53.227Z,67.41
2022-10-19T07:43:53.256Z,67.34
2022-10-19T07:45:53.241Z,67.01
2022-10-19T07:46:53.246Z,67.22
2022-10-19T07:47:53.253Z,66.98
2022-10-19T07:48:53.242Z,66.98
2022-10-19T07:49:53.257Z,66.67
2022-10-19T07:50:53.253Z,67.07
2022-10-19T07:51:53.274Z,66.91
2022-10-19T07:52:53.240Z,66.67
2022-10-19T07:54:53.243Z,66.46
2022-10-19T07:55:53.250Z,66.57
2022-10-19T07:56:53.284Z,66.63
2022-10-19T07:58:53.312Z,66.80
2022-10-19T08:00:53.288Z,66.79
2022-10-19T08:01:53.298Z,66.77
2022-10-19T08:02:57.749Z,66.75
2022-10-19T08:05:01.763Z,66.62
2022-10-19T08:05:53.277Z,66.69
2022-10-19T08:06:53.291Z,66.54
2022-10-19T08:07:53.316Z,66.28
2022-10-19T08:08:53.572Z,66.23
2022-10-19T08:09:54.106Z,66.23
2022-10-19T08:10:53.318Z,66.11
2022-10-19T08:11:53.320Z,65.90
2022-10-19T08:12:53.304Z,65.92
2022-10-19T08:13:53.340Z,65.84
2022-10-19T08:14:53.317Z,65.84
2022-10-19T08:15:53.315Z,65.72
2022-10-19T08:16:53.305Z,65.61
2022-10-19T08:17:53.370Z,65.46
2022-10-19T08:18:53.302Z,65.46
2022-10-19T08:19:53.347Z,65.46
2022-10-19T08:20:53.316Z,65.45
2022-10-19T08:21:53.319Z,65.31
2022-10-19T08:23:53.327Z,64.94
2022-10-19T08:24:53.330Z,65.11
2022-10-19T08:25:53.365Z,65.06
2022-10-19T08:26:53.331Z,65.04
2022-10-19T08:27:53.330Z,65.27
2022-10-19T08:28:53.346Z,65.29
2022-10-19T08:29:53.401Z,65.39
2022-10-19T08:32:53.368Z,65.54
2022-10-19T08:33:53.343Z,65.60
2022-10-19T08:34:53.349Z,65.59
2022-10-19T08:35:53.396Z,65.56
2022-10-19T08:36:53.379Z,65.93
2022-10-19T08:37:53.777Z,65.93
2022-10-19T08:38:53.378Z,65.91
2022-10-19T08:39:53.390Z,65.73
2022-10-19T08:42:53.366Z,65.30
2022-10-19T08:43:53.411Z,65.05
2022-10-19T08:44:53.409Z,65.50
2022-10-19T08:45:53.693Z,65.43
2022-10-19T08:46:53.400Z,65.24
2022-10-19T08:47:53.410Z,65.24
2022-10-19T08:48:53.402Z,64.98
2022-10-19T08:49:53.405Z,65.03
2022-10-19T08:50:53.421Z,64.92
2022-10-19T08:51:53.423Z,64.71
2022-10-19T08:52:53.409Z,64.60
2022-10-19T08:53:53.438Z,64.60
2022-10-19T08:54:53.410Z,64.58
2022-10-19T08:55:53.436Z,64.54
2022-10-19T08:57:53.433Z,64.28
2022-10-19T08:58:53.448Z,64.26
2022-10-19T08:59:53.441Z,64.30
2022-10-19T09:00:53.435Z,64.40
2022-10-19T09:01:53.443Z,64.40
2022-10-19T09:02:53.426Z,64.46
2022-10-19T09:03:55.816Z,64.71
2022-10-19T09:04:53.441Z,64.82
2022-10-19T09:05:53.446Z,65.09
2022-10-19T09:06:53.477Z,65.37
2022-10-19T09:08:53.535Z,65.33
2022-10-19T09:09:53.464Z,65.10
2022-10-19T09:10:53.455Z,65.28
2022-10-19T09:11:53.433Z,65.51
2022-10-19T09:12:55.135Z,65.65
2022-10-19T09:14:04.614Z,65.79
2022-10-19T09:14:53.464Z,65.68
2022-10-19T09:16:53.468Z,65.77
2022-10-19T09:17:53.481Z,65.72
2022-10-19T09:19:53.483Z,65.70
2022-10-19T09:20:53.487Z,65.44
2022-10-19T09:21:53.501Z,65.42
2022-10-19T09:22:53.897Z,65.21
2022-10-19T09:23:53.481Z,65.21
2022-10-19T09:25:53.505Z,64.97
2022-10-19T09:26:53.513Z,64.78
2022-10-19T09:27:53.567Z,64.87
2022-10-19T09:28:53.501Z,65.10
2022-10-19T09:29:53.497Z,65.30
2022-10-19T09:30:53.519Z,65.05
2022-10-19T09:31:53.545Z,65.38
2022-10-19T09:32:53.498Z,65.38
2022-10-19T09:33:53.501Z,65.38
2022-10-19T09:34:53.522Z,65.47
2022-10-19T09:35:53.583Z,65.33
2022-10-19T09:36:53.527Z,65.33
2022-10-19T09:37:53.504Z,65.11
2022-10-19T09:38:53.537Z,64.56
2022-10-19T09:39:55.038Z,63.69
2022-10-19T09:42:53.557Z,64.10
2022-10-19T09:45:53.558Z,64.20
2022-10-19T09:46:53.556Z,64.44
2022-10-19T09:47:53.540Z,64.50
2022-10-19T09:48:53.543Z,64.46
2022-10-19T09:49:53.561Z,64.33
2022-10-19T09:50:53.574Z,64.33
2022-10-19T09:51:53.592Z,63.86
2022-10-19T09:52:53.619Z,63.67
2022-10-19T09:54:53.571Z,63.71
2022-10-19T09:55:53.607Z,63.79
2022-10-19T09:56:53.562Z,63.67
2022-10-19T09:58:53.571Z,63.80
2022-10-19T09:59:54.136Z,63.98
2022-10-19T10:00:53.597Z,63.98
2022-10-19T10:01:53.757Z,64.02
2022-10-19T10:02:53.581Z,64.31
2022-10-19T10:03:55.853Z,64.68
2022-10-19T10:04:53.607Z,64.43
2022-10-19T10:05:53.583Z,64.52
2022-10-19T10:06:53.604Z,64.48
2022-10-19T10:07:53.579Z,64.48
2022-10-19T10:09:53.598Z,64.04
2022-10-19T10:10:53.597Z,64.09
2022-10-19T10:12:53.635Z,64.62
2022-10-19T10:13:53.637Z,64.65
2022-10-19T10:14:53.643Z,64.58
2022-10-19T10:15:53.616Z,64.36
2022-10-19T10:16:53.625Z,64.36
2022-10-19T10:17:53.612Z,64.15
2022-10-19T10:18:53.622Z,64.01
2022-10-19T10:19:53.618Z,63.92
2022-10-19T10:20:53.687Z,64.07
2022-10-19T10:21:53.637Z,64.05
2022-10-19T10:22:53.666Z,63.97
2022-10-19T10:23:53.681Z,63.79
2022-10-19T10:24:53.632Z,63.69
2022-10-19T10:25:53.648Z,63.59
2022-10-19T10:26:53.659Z,63.57
2022-10-19T10:27:53.669Z,63.31
2022-10-19T10:28:55.610Z,63.31
2022-10-19T10:29:53.775Z,62.52
2022-10-19T10:30:53.678Z,62.52
2022-10-19T10:31:53.678Z,62.41
2022-10-19T10:32:53.739Z,62.50
2022-10-19T10:33:53.760Z,62.50
2022-10-19T10:34:56.944Z,62.21
2022-10-19T10:35:53.797Z,62.02
2022-10-19T10:36:54.351Z,61.74
2022-10-19T10:37:53.682Z,61.74
2022-10-19T10:38:53.791Z,61.40
2022-10-19T10:39:53.706Z,61.42
2022-10-19T10:40:53.686Z,61.20
2022-10-19T10:41:53.696Z,60.70
2022-10-19T10:42:53.759Z,60.13
2022-10-19T10:43:53.889Z,59.98
2022-10-19T10:44:53.697Z,59.98
2022-10-19T10:46:53.711Z,60.03
2022-10-19T10:47:53.794Z,59.80
2022-10-19T10:48:53.728Z,59.63
2022-10-19T10:49:53.760Z,59.89
2022-10-19T10:50:53.715Z,59.89
2022-10-19T10:51:53.713Z,60.00
2022-10-19T10:52:53.734Z,59.96
2022-10-19T10:53:53.775Z,59.79
2022-10-19T10:54:53.714Z,59.79
2022-10-19T10:55:53.733Z,59.51
2022-10-19T10:56:53.754Z,59.31
2022-10-19T10:57:53.757Z,58.99
2022-10-19T10:58:53.744Z,59.03
2022-10-19T10:59:53.726Z,59.03
2022-10-19T11:00:53.758Z,58.73
2022-10-19T11:01:53.845Z,58.85
2022-10-19T11:02:53.790Z,59.08
2022-10-19T11:03:53.774Z,58.97
2022-10-19T11:04:53.792Z,58.84
2022-10-19T11:05:53.777Z,58.84
2022-10-19T11:06:53.826Z,59.06
2022-10-19T11:07:53.784Z,59.07
2022-10-19T11:08:53.796Z,59.07
2022-10-19T11:09:53.783Z,59.34
2022-10-19T11:10:53.785Z,59.24
2022-10-19T11:11:53.773Z,59.07
2022-10-19T11:12:53.762Z,59.07
2022-10-19T11:13:54.629Z,59.67
2022-10-19T11:14:53.781Z,59.67
2022-10-19T11:15:53.803Z,59.76
2022-10-19T11:16:53.812Z,59.86
2022-10-19T11:17:53.815Z,59.59
2022-10-19T11:18:53.914Z,59.58
2022-10-19T11:19:53.818Z,59.55
2022-10-19T11:20:53.789Z,59.55
2022-10-19T11:21:53.837Z,59.91
2022-10-19T11:22:53.811Z,59.91
2022-10-19T11:23:53.950Z,59.72
2022-10-19T11:24:53.823Z,59.73
2022-10-19T11:25:53.819Z,59.35
2022-10-19T11:26:53.820Z,59.48
2022-10-19T11:27:53.812Z,59.48
2022-10-19T11:28:53.809Z,59.49
2022-10-19T11:29:53.860Z,59.30
2022-10-19T11:30:53.809Z,59.30
2022-10-19T11:31:53.829Z,58.92
2022-10-19T11:32:53.815Z,58.92
2022-10-19T11:33:53.838Z,58.40
2022-10-19T11:34:53.906Z,58.70
2022-10-19T11:35:53.844Z,58.43
2022-10-19T11:36:53.871Z,58.72
2022-10-19T11:38:17.532Z,58.71
2022-10-19T11:38:53.837Z,58.77
2022-10-19T11:39:53.851Z,58.63
2022-10-19T11:42:53.850Z,58.34
2022-10-19T11:43:53.861Z,58.37
2022-10-19T11:44:53.843Z,58.37
2022-10-19T11:45:53.869Z,59.20
2022-10-19T11:47:53.936Z,58.89
2022-10-19T11:48:54.909Z,58.65
2022-10-19T11:49:53.874Z,58.23
2022-10-19T11:50:58.773Z,58.39
2022-10-19T11:51:53.867Z,58.14
2022-10-19T11:52:53.880Z,58.44
2022-10-19T11:55:53.895Z,58.14
2022-10-19T11:57:04.776Z,58.13
2022-10-19T11:57:53.903Z,57.22
2022-10-19T11:58:53.896Z,57.22
2022-10-19T11:59:55.685Z,57.75
2022-10-19T12:00:53.895Z,57.75
2022-10-19T12:01:53.995Z,57.75
2022-10-19T12:02:53.879Z,57.56
2022-10-19T12:03:53.918Z,57.49
2022-10-19T12:04:53.928Z,57.09
2022-10-19T12:05:53.893Z,57.09
2022-10-19T12:06:53.914Z,57.16
2022-10-19T12:07:53.892Z,57.34
2022-10-19T12:08:56.176Z,56.79
2022-10-19T12:09:53.918Z,57.03
2022-10-19T12:10:53.930Z,56.79
2022-10-19T12:12:53.926Z,56.92
2022-10-19T12:13:53.901Z,56.92
2022-10-19T12:14:53.950Z,56.71
2022-10-19T12:15:53.992Z,56.71
2022-10-19T12:16:53.947Z,56.83
2022-10-19T12:17:53.968Z,56.42
2022-10-19T12:18:53.947Z,56.32
2022-10-19T12:19:53.947Z,56.32
2022-10-19T12:20:53.932Z,56.30
2022-10-19T12:21:53.951Z,56.58
2022-10-19T12:22:53.959Z,56.58
2022-10-19T12:23:53.965Z,56.62
2022-10-19T12:24:53.960Z,57.39
2022-10-19T12:25:53.951Z,56.76
2022-10-19T12:26:53.987Z,55.98
2022-10-19T12:27:55.053Z,55.90
2022-10-19T12:28:53.978Z,55.32
2022-10-19T12:29:53.968Z,55.32
2022-10-19T12:30:54.026Z,55.69
2022-10-19T12:31:53.957Z,55.69
2022-10-19T12:32:54.450Z,55.59
2022-10-19T12:33:53.994Z,55.58
2022-10-19T12:34:53.973Z,55.95
2022-10-19T12:35:54.061Z,56.31
2022-10-19T12:36:54.001Z,57.00
2022-10-19T12:37:53.996Z,57.00
2022-10-19T12:39:00.027Z,57.10
2022-10-19T12:39:53.997Z,57.51
2022-10-19T12:40:54.015Z,57.74
2022-10-19T12:41:54.027Z,57.71
2022-10-19T12:42:54.007Z,57.26
2022-10-19T12:43:54.011Z,57.26
2022-10-19T12:44:56.364Z,57.50
2022-10-19T12:45:54.075Z,57.58
2022-10-19T12:46:56.459Z,57.58
2022-10-19T12:47:54.030Z,57.43
2022-10-19T12:48:54.018Z,56.47
2022-10-19T12:49:54.021Z,56.72
2022-10-19T12:50:54.005Z,56.72
2022-10-19T12:51:54.042Z,56.98
2022-10-19T12:52:54.024Z,56.98
2022-10-19T12:53:54.021Z,57.01
2022-10-19T12:54:54.053Z,57.45
2022-10-19T12:56:54.041Z,57.63
2022-10-19T12:57:54.045Z,57.56
2022-10-19T12:59:54.065Z,57.49
2022-10-19T13:00:54.096Z,57.60
2022-10-19T13:01:54.049Z,57.20
2022-10-19T13:02:54.048Z,56.94
2022-10-19T13:03:54.058Z,56.83
2022-10-19T13:04:55.247Z,57.19
2022-10-19T13:05:54.086Z,57.34
2022-10-19T13:06:54.069Z,57.34
2022-10-19T13:07:54.061Z,57.46
2022-10-19T13:08:54.117Z,56.92
2022-10-19T13:09:54.056Z,56.92
2022-10-19T13:10:54.070Z,56.37
2022-10-19T13:11:54.081Z,56.51
2022-10-19T13:12:54.066Z,56.51
2022-10-19T13:13:54.080Z,56.55
2022-10-19T13:14:54.069Z,56.85
2022-10-19T13:15:54.074Z,56.78
2022-10-19T13:16:54.082Z,56.62
2022-10-19T13:17:54.087Z,56.69
2022-10-19T13:18:54.090Z,56.96
2022-10-19T13:19:54.113Z,56.76
2022-10-19T13:20:54.110Z,56.55
2022-10-19T13:21:54.108Z,56.55
2022-10-19T13:22:54.121Z,56.85
2022-10-19T13:23:54.122Z,57.09
2022-10-19T13:24:54.126Z,56.92
2022-10-19T13:25:54.098Z,56.92
2022-10-19T13:26:54.145Z,56.49
2022-10-19T13:27:54.145Z,56.49
2022-10-19T13:28:54.140Z,56.45
2022-10-19T13:29:54.135Z,56.45
2022-10-19T13:30:58.370Z,56.58
2022-10-19T13:31:54.116Z,56.28
2022-10-19T13:32:54.136Z,56.53
2022-10-19T13:33:54.168Z,56.53
2022-10-19T13:34:54.137Z,56.53
2022-10-19T13:35:54.157Z,56.72
2022-10-19T13:36:54.149Z,56.72
2022-10-19T13:37:54.158Z,55.90
2022-10-19T13:38:54.134Z,55.83
2022-10-19T13:39:54.151Z,55.83
2022-10-19T13:40:54.161Z,56.20
2022-10-19T13:41:55.467Z,56.55
2022-10-19T13:43:54.168Z,56.19
2022-10-19T13:44:54.183Z,56.20
2022-10-19T13:45:54.163Z,56.20
2022-10-19T13:46:54.173Z,56.54
2022-10-19T13:47:54.167Z,56.54
2022-10-19T13:48:54.165Z,56.59
2022-10-19T13:49:54.177Z,56.39
2022-10-19T13:50:54.172Z,56.36
2022-10-19T13:51:54.186Z,56.52
2022-10-19T13:52:54.201Z,56.78
2022-10-19T13:53:54.177Z,56.78
2022-10-19T13:54:54.203Z,56.55
2022-10-19T13:56:54.176Z,56.64
2022-10-19T13:57:55.351Z,56.79
2022-10-19T13:58:54.196Z,56.78
2022-10-19T14:00:54.201Z,56.39
2022-10-19T14:01:54.229Z,56.54
2022-10-19T14:02:54.212Z,56.54
2022-10-19T14:03:54.183Z,56.47
2022-10-19T14:04:54.208Z,56.68
2022-10-19T14:06:54.225Z,56.94
2022-10-19T14:08:54.330Z,56.84
2022-10-19T14:09:54.234Z,56.71
2022-10-19T14:11:01.005Z,56.41
2022-10-19T14:11:54.257Z,56.38
2022-10-19T14:12:54.232Z,56.38
2022-10-19T14:13:54.243Z,56.12
2022-10-19T14:14:54.268Z,55.95
2022-10-19T14:15:54.260Z,56.04
2022-10-19T14:16:56.076Z,56.05
2022-10-19T14:17:54.228Z,56.05
2022-10-19T14:18:55.637Z,55.83
2022-10-19T14:20:54.249Z,55.71
2022-10-19T14:22:54.247Z,55.57
2022-10-19T14:23:54.255Z,55.38
2022-10-19T14:24:54.253Z,55.71
2022-10-19T14:25:54.274Z,55.57
2022-10-19T14:28:54.303Z,56.08
2022-10-19T14:29:54.360Z,56.08
2022-10-19T14:30:54.303Z,55.79
2022-10-19T14:31:54.297Z,55.79
2022-10-19T14:32:56.770Z,55.92
2022-10-19T14:33:54.302Z,55.50
2022-10-19T14:35:54.295Z,55.60
2022-10-19T14:36:54.370Z,55.53
2022-10-19T14:37:54.300Z,56.02
2022-10-19T14:38:54.297Z,56.02
2022-10-19T14:40:54.296Z,56.04
2022-10-19T14:41:54.295Z,56.14
2022-10-19T14:42:54.444Z,56.15
2022-10-19T14:43:54.306Z,56.15
2022-10-19T14:44:54.304Z,56.10
2022-10-19T14:45:54.325Z,56.09
2022-10-19T14:47:54.335Z,56.15
2022-10-19T14:48:54.354Z,56.23
2022-10-19T14:49:54.332Z,56.23
2022-10-19T14:50:54.322Z,56.26
2022-10-19T14:51:54.335Z,56.18
2022-10-19T14:52:54.339Z,56.38
2022-10-19T14:53:54.367Z,56.43
2022-10-19T14:54:54.363Z,56.35
2022-10-19T14:56:54.396Z,56.49
2022-10-19T14:57:54.349Z,56.49
2022-10-19T14:58:54.351Z,56.57
2022-10-19T14:59:54.347Z,56.56
2022-10-19T15:00:54.346Z,56.45
2022-10-19T15:02:54.363Z,56.25
2022-10-19T15:03:54.379Z,56.44
2022-10-19T15:04:54.456Z,56.41
2022-10-19T15:05:54.358Z,56.41
2022-10-19T15:06:54.378Z,56.24
2022-10-19T15:07:54.381Z,56.09
2022-10-19T15:09:54.422Z,56.19